createdAt,value
2018-07-23T00:02:07.457Z,23.38
2018-07-23T00:04:36.164Z,23.27
2018-07-23T00:07:04.686Z,23.22
2018-07-23T00:09:33.371Z,23.19
2018-07-23T00:12:02.121Z,23.12
2018-07-23T00:14:30.846Z,23.35
2018-07-23T00:16:59.446Z,23.53
2018-07-23T00:19:28.178Z,23.21
2018-07-23T00:21:56.632Z,23.05
2018-07-23T00:24:25.284Z,23.06
2018-07-23T00:26:53.949Z,22.99
2018-07-23T00:29:22.661Z,22.97
2018-07-23T00:31:51.338Z,22.97
2018-07-23T00:34:20.086Z,22.94
2018-07-23T00:36:48.664Z,23.19
2018-07-23T00:39:17.498Z,23.24
2018-07-23T00:41:46.159Z,22.90
2018-07-23T00:44:14.805Z,22.83
2018-07-23T00:46:43.485Z,22.99
2018-07-23T00:49:12.203Z,23.05
2018-07-23T00:51:40.883Z,23.05
2018-07-23T00:54:09.608Z,23.02
2018-07-23T00:56:38.358Z,22.76
2018-07-23T00:59:06.795Z,22.54
2018-07-23T01:01:35.560Z,22.64
2018-07-23T01:04:04.433Z,22.54
2018-07-23T01:06:33.209Z,22.47
2018-07-23T01:09:01.905Z,22.43
2018-07-23T01:11:30.671Z,22.44
2018-07-23T01:13:59.435Z,22.40
2018-07-23T01:16:28.082Z,22.33
2018-07-23T01:18:56.783Z,22.69
2018-07-23T01:21:25.637Z,22.86
2018-07-23T01:23:54.363Z,22.79
2018-07-23T01:26:23.083Z,22.63
2018-07-23T01:28:51.808Z,22.75
2018-07-23T01:31:20.495Z,22.55
2018-07-23T01:33:49.165Z,22.41
2018-07-23T01:36:17.913Z,22.35
2018-07-23T01:38:46.635Z,22.38
2018-07-23T01:41:15.231Z,22.32
2018-07-23T01:43:43.873Z,22.31
2018-07-23T01:46:12.516Z,22.42
2018-07-23T01:48:41.091Z,22.68
2018-07-23T01:51:09.723Z,22.81
2018-07-23T01:53:38.435Z,22.85
2018-07-23T01:56:07.138Z,23.02
2018-07-23T01:58:35.863Z,22.97
2018-07-23T02:01:10.646Z,23.26
2018-07-23T02:03:40.523Z,23.26
2018-07-23T02:06:10.237Z,23.17
2018-07-23T02:08:38.799Z,23.05
2018-07-23T02:11:07.475Z,23.02
2018-07-23T02:13:36.248Z,22.98
2018-07-23T02:16:05.123Z,23.24
2018-07-23T02:18:33.825Z,23.28
2018-07-23T02:21:02.548Z,23.18
2018-07-23T02:23:31.097Z,23.17
2018-07-23T02:25:59.911Z,23.18
2018-07-23T02:28:28.676Z,23.37
2018-07-23T02:31:04.579Z,23.17
2018-07-23T02:33:33.383Z,22.97
2018-07-23T02:36:02.216Z,22.96
2018-07-23T02:38:30.976Z,22.97
2018-07-23T02:40:59.667Z,23.00
2018-07-23T02:43:28.448Z,23.00
2018-07-23T02:45:57.137Z,22.91
2018-07-23T02:48:25.866Z,22.80
2018-07-23T02:50:54.627Z,22.63
2018-07-23T02:53:23.378Z,22.20
2018-07-23T02:55:53.792Z,21.96
2018-07-23T02:58:22.833Z,21.39
2018-07-23T03:00:51.583Z,20.86
2018-07-23T03:03:25.631Z,20.64
2018-07-23T03:06:00.541Z,20.32
2018-07-23T03:08:29.365Z,20.06
2018-07-23T03:11:03.976Z,19.91
2018-07-23T03:13:32.730Z,19.67
2018-07-23T03:16:04.926Z,19.62
2018-07-23T03:18:34.790Z,19.85
2018-07-23T03:21:03.541Z,19.70
2018-07-23T03:23:32.343Z,19.71
2018-07-23T03:26:02.396Z,19.62
2018-07-23T03:28:31.140Z,19.60
2018-07-23T03:30:59.796Z,19.58
2018-07-23T03:33:28.767Z,19.69
2018-07-23T03:35:57.617Z,19.66
2018-07-23T03:38:26.350Z,19.65
2018-07-23T03:40:55.265Z,19.66
2018-07-23T03:43:23.909Z,19.67
2018-07-23T03:45:52.601Z,19.80
2018-07-23T03:48:21.250Z,19.74
2018-07-23T03:50:51.835Z,19.68
2018-07-23T03:53:20.599Z,19.58
2018-07-23T03:55:53.385Z,19.64
2018-07-23T03:58:23.123Z,19.60
2018-07-23T04:00:51.801Z,19.57
2018-07-23T04:03:20.415Z,19.52
2018-07-23T04:05:49.073Z,19.42
2018-07-23T04:08:17.717Z,19.36
2018-07-23T04:10:57.744Z,19.28
2018-07-23T04:13:26.446Z,19.31
2018-07-23T04:15:55.123Z,19.24
2018-07-23T04:18:23.861Z,19.59
2018-07-23T04:20:54.766Z,19.53
2018-07-23T04:23:23.433Z,19.33
2018-07-23T04:25:57.039Z,19.16
2018-07-23T04:28:25.712Z,19.18
2018-07-23T04:30:55.686Z,19.23
2018-07-23T04:33:32.636Z,19.30
2018-07-23T04:36:01.303Z,19.36
2018-07-23T04:38:29.975Z,19.54
2018-07-23T04:40:58.811Z,19.61
2018-07-23T04:43:28.099Z,19.46
2018-07-23T04:45:56.783Z,19.51
2018-07-23T04:48:25.486Z,19.61
2018-07-23T04:50:54.142Z,19.62
2018-07-23T04:53:22.916Z,19.81
2018-07-23T04:55:51.423Z,19.90
2018-07-23T04:58:20.119Z,19.96
2018-07-23T05:00:48.771Z,20.03
2018-07-23T05:03:17.511Z,20.18
2018-07-23T05:05:46.226Z,20.22
2018-07-23T05:08:14.925Z,20.24
2018-07-23T05:10:54.731Z,20.35
2018-07-23T05:13:43.687Z,20.36
2018-07-23T05:16:12.378Z,20.38
2018-07-23T05:18:54.358Z,20.31
2018-07-23T05:21:23.168Z,20.13
2018-07-23T05:23:51.966Z,20.01
2018-07-23T05:26:20.659Z,19.89
2018-07-23T05:28:55.436Z,19.77
2018-07-23T05:31:24.097Z,19.85
2018-07-23T05:33:52.804Z,19.76
2018-07-23T05:36:21.485Z,19.77
2018-07-23T05:38:50.179Z,19.83
2018-07-23T05:41:18.931Z,19.94
2018-07-23T05:43:47.405Z,20.00
2018-07-23T05:46:15.956Z,20.05
2018-07-23T05:48:44.720Z,20.14
2018-07-23T05:51:13.467Z,20.25
2018-07-23T05:53:41.914Z,20.38
2018-07-23T05:56:10.583Z,20.39
2018-07-23T05:58:39.217Z,20.64
2018-07-23T06:01:08.006Z,20.84
2018-07-23T06:03:36.719Z,21.03
2018-07-23T06:06:05.443Z,21.18
2018-07-23T06:08:34.338Z,21.44
2018-07-23T06:11:03.498Z,21.94
2018-07-23T06:13:32.350Z,22.11
2018-07-23T06:16:01.678Z,22.24
2018-07-23T06:18:30.379Z,22.38
2018-07-23T06:20:59.558Z,22.63
2018-07-23T06:23:28.198Z,22.99
2018-07-23T06:25:56.889Z,22.85
2018-07-23T06:28:25.560Z,23.41
2018-07-23T06:30:54.253Z,23.78
2018-07-23T06:33:23.010Z,23.86
2018-07-23T06:35:51.678Z,24.30
2018-07-23T06:38:20.613Z,24.51
2018-07-23T06:40:49.248Z,24.89
2018-07-23T06:43:18.048Z,25.16
2018-07-23T06:45:46.735Z,25.29
2018-07-23T06:48:15.338Z,25.23
2018-07-23T06:50:44.050Z,25.92
2018-07-23T06:53:12.735Z,25.76
2018-07-23T06:58:27.276Z,26.53
2018-07-23T07:00:59.350Z,26.75
2018-07-23T07:03:28.037Z,26.76
2018-07-23T07:05:56.728Z,26.87
2018-07-23T07:08:25.407Z,27.12
2018-07-23T07:11:11.037Z,27.45
2018-07-23T07:13:39.735Z,27.54
2018-07-23T07:16:37.433Z,27.78
2018-07-23T07:19:06.058Z,28.08
2018-07-23T07:21:34.720Z,28.28
2018-07-23T07:24:03.363Z,28.45
2018-07-23T07:26:31.986Z,28.75
2018-07-23T07:29:00.718Z,28.65
2018-07-23T07:31:29.327Z,28.70
2018-07-23T07:33:57.967Z,29.38
2018-07-23T07:36:26.688Z,29.37
2018-07-23T07:38:56.000Z,29.07
2018-07-23T07:41:24.771Z,28.24
2018-07-23T07:43:53.450Z,27.72
2018-07-23T07:46:22.207Z,27.25
2018-07-23T07:48:50.811Z,26.62
2018-07-23T07:51:19.458Z,26.64
2018-07-23T07:53:48.136Z,27.12
2018-07-23T07:56:16.791Z,27.89
2018-07-23T07:58:45.568Z,28.72
2018-07-23T08:01:14.358Z,28.94
2018-07-23T08:03:43.064Z,29.20
2018-07-23T08:06:11.773Z,29.65
2018-07-23T08:08:40.439Z,29.70
2018-07-23T08:11:09.216Z,29.77
2018-07-23T08:13:37.939Z,30.32
2018-07-23T08:16:06.673Z,30.30
2018-07-23T08:18:35.349Z,30.34
2018-07-23T08:21:04.110Z,29.95
2018-07-23T08:23:32.858Z,30.42
2018-07-23T08:26:02.508Z,30.96
2018-07-23T08:28:31.199Z,31.15
2018-07-23T08:30:59.938Z,31.23
2018-07-23T08:33:28.581Z,31.60
2018-07-23T08:35:58.126Z,30.56
2018-07-23T08:38:26.748Z,30.51
2018-07-23T08:40:55.253Z,30.25
2018-07-23T08:43:23.930Z,30.33
2018-07-23T08:45:52.428Z,30.97
2018-07-23T08:48:21.118Z,30.96
2018-07-23T08:50:49.831Z,31.62
2018-07-23T08:53:18.525Z,31.83
2018-07-23T08:55:47.241Z,32.57
2018-07-23T08:58:16.035Z,32.13
2018-07-23T09:00:45.248Z,32.19
2018-07-23T09:03:17.341Z,32.96
2018-07-23T09:05:46.121Z,32.56
2018-07-23T09:08:14.791Z,31.56
2018-07-23T09:10:43.599Z,30.78
2018-07-23T09:13:12.330Z,30.66
2018-07-23T09:15:41.111Z,30.01
2018-07-23T09:18:09.893Z,29.35
2018-07-23T09:20:38.646Z,28.90
2018-07-23T09:23:08.832Z,28.92
2018-07-23T09:25:43.246Z,29.80
2018-07-23T09:28:11.847Z,30.04
2018-07-23T09:30:46.037Z,30.54
2018-07-23T09:33:14.611Z,30.82
2018-07-23T09:35:43.403Z,30.90
2018-07-23T09:38:12.524Z,31.11
2018-07-23T09:40:41.322Z,31.63
2018-07-23T09:43:10.183Z,31.33
2018-07-23T09:45:39.165Z,30.66
2018-07-23T09:48:07.994Z,30.87
2018-07-23T09:50:36.865Z,31.31
2018-07-23T09:53:05.623Z,31.60
2018-07-23T09:55:34.721Z,31.87
2018-07-23T09:58:03.522Z,32.09
2018-07-23T10:00:37.818Z,32.34
2018-07-23T10:03:06.639Z,32.05
2018-07-23T10:05:35.413Z,31.74
2018-07-23T10:08:04.171Z,31.33
2018-07-23T10:10:32.955Z,31.75
2018-07-23T10:13:01.640Z,32.07
2018-07-23T10:15:30.998Z,32.28
2018-07-23T10:17:59.828Z,32.17
2018-07-23T10:20:28.486Z,32.07
2018-07-23T10:22:57.783Z,31.99
2018-07-23T10:25:26.541Z,31.62
2018-07-23T10:27:55.303Z,31.52
2018-07-23T10:30:24.253Z,31.89
2018-07-23T10:32:53.203Z,31.75
2018-07-23T10:35:22.183Z,31.58
2018-07-23T10:37:50.793Z,31.76
2018-07-23T10:40:19.498Z,32.11
2018-07-23T10:42:48.260Z,32.30
2018-07-23T10:45:16.790Z,32.52
2018-07-23T10:47:45.658Z,32.27
2018-07-23T10:50:14.429Z,32.50
2018-07-23T10:52:42.976Z,32.50
2018-07-23T10:55:12.230Z,33.11
2018-07-23T10:57:40.936Z,32.97
2018-07-23T11:00:09.936Z,32.97
2018-07-23T11:02:38.678Z,33.28
2018-07-23T11:05:08.648Z,33.87
2018-07-23T11:07:37.336Z,34.21
2018-07-23T11:10:07.218Z,34.34
2018-07-23T11:12:36.415Z,34.20
2018-07-23T11:15:07.421Z,33.97
2018-07-23T11:17:36.847Z,34.12
2018-07-23T11:20:08.311Z,33.33
2018-07-23T11:22:37.021Z,32.23
2018-07-23T11:25:38.416Z,31.40
2018-07-23T11:27:34.884Z,31.36
2018-07-23T11:30:05.740Z,31.04
2018-07-23T11:32:35.616Z,31.57
2018-07-23T11:35:04.332Z,32.62
2018-07-23T11:37:33.396Z,32.88
2018-07-23T11:40:02.347Z,32.84
2018-07-23T11:42:31.179Z,33.05
2018-07-23T11:44:59.887Z,32.93
2018-07-23T11:47:28.573Z,33.53
2018-07-23T11:49:57.318Z,34.07
2018-07-23T11:52:25.906Z,33.97
2018-07-23T11:54:54.715Z,34.47
2018-07-23T11:57:23.499Z,34.23
2018-07-23T11:59:52.324Z,34.58
2018-07-23T12:02:21.115Z,34.29
2018-07-23T12:04:49.968Z,33.66
2018-07-23T12:07:19.313Z,33.19
2018-07-23T12:09:48.155Z,33.13
2018-07-23T12:12:17.763Z,33.68
2018-07-23T12:14:46.604Z,34.36
2018-07-23T12:17:15.386Z,34.20
2018-07-23T12:19:44.100Z,32.59
2018-07-23T12:22:12.609Z,32.77
2018-07-23T12:24:41.273Z,33.29
2018-07-23T12:27:10.015Z,33.48
2018-07-23T12:29:38.769Z,32.57
2018-07-23T12:32:08.304Z,33.01
2018-07-23T12:34:36.961Z,33.84
2018-07-23T12:37:08.856Z,33.71
2018-07-23T12:39:37.540Z,33.74
2018-07-23T12:42:06.514Z,33.40
2018-07-23T12:44:36.319Z,33.25
2018-07-23T12:47:05.106Z,32.90
2018-07-23T12:49:34.640Z,32.98
2018-07-23T12:52:03.332Z,33.51
2018-07-23T12:54:32.592Z,33.80
2018-07-23T12:57:02.461Z,33.76
2018-07-23T12:59:31.551Z,33.61
2018-07-23T13:02:00.473Z,33.25
2018-07-23T13:04:29.330Z,33.18
2018-07-23T13:06:58.297Z,32.88
2018-07-23T13:09:27.691Z,33.49
2018-07-23T13:11:56.393Z,32.88
2018-07-23T13:14:25.153Z,32.28
2018-07-23T13:16:53.964Z,31.58
2018-07-23T13:19:22.676Z,31.75
2018-07-23T13:21:52.031Z,32.12
2018-07-23T13:24:20.871Z,32.09
2018-07-23T13:26:49.844Z,32.52
2018-07-23T13:29:18.663Z,33.38
2018-07-23T13:31:47.743Z,34.07
2018-07-23T13:34:16.476Z,34.41
2018-07-23T13:36:46.279Z,33.18
2018-07-23T13:39:15.108Z,31.43
2018-07-23T13:41:44.017Z,31.44
2018-07-23T13:44:13.755Z,32.20
2018-07-23T13:46:42.293Z,32.25
2018-07-23T13:49:11.144Z,33.17
2018-07-23T13:51:40.343Z,33.35
2018-07-23T13:54:09.055Z,33.66
2018-07-23T13:56:37.818Z,33.16
2018-07-23T13:59:06.550Z,33.70
2018-07-23T14:01:35.670Z,33.54
2018-07-23T14:04:05.063Z,33.90
2018-07-23T14:06:33.888Z,34.00
2018-07-23T14:09:03.658Z,34.10
2018-07-23T14:11:32.411Z,33.85
2018-07-23T14:14:01.588Z,34.37
2018-07-23T14:16:30.239Z,34.65
2018-07-23T14:18:58.890Z,33.88
2018-07-23T14:21:27.612Z,33.42
2018-07-23T14:23:58.157Z,33.34
2018-07-23T14:26:26.998Z,33.90
2018-07-23T14:28:55.636Z,34.12
2018-07-23T14:31:24.265Z,34.13
2018-07-23T14:33:53.032Z,34.41
2018-07-23T14:36:21.865Z,34.97
2018-07-23T14:38:50.777Z,34.03
2018-07-23T14:41:19.693Z,33.23
2018-07-23T14:43:48.420Z,33.27
2018-07-23T14:46:18.248Z,32.47
2018-07-23T14:48:46.973Z,32.97
2018-07-23T14:51:15.583Z,33.56
2018-07-23T14:53:44.180Z,34.16
2018-07-23T14:56:12.902Z,33.83
2018-07-23T14:58:41.351Z,33.65
2018-07-23T15:01:10.042Z,33.41
2018-07-23T15:03:38.694Z,33.58
2018-07-23T15:06:07.413Z,33.68
2018-07-23T15:08:36.296Z,33.82
2018-07-23T15:11:05.240Z,34.34
2018-07-23T15:13:33.940Z,33.23
2018-07-23T15:16:02.648Z,32.23
2018-07-23T15:18:31.270Z,31.50
2018-07-23T15:20:59.916Z,31.10
2018-07-23T15:23:28.496Z,30.93
2018-07-23T15:25:57.731Z,31.26
2018-07-23T15:28:26.230Z,32.17
2018-07-23T15:30:54.780Z,32.84
2018-07-23T15:33:23.586Z,32.85
2018-07-23T15:35:52.269Z,32.82
2018-07-23T15:38:21.091Z,33.07
2018-07-23T15:40:49.841Z,33.06
2018-07-23T15:43:18.401Z,33.28
2018-07-23T15:45:47.472Z,33.44
2018-07-23T15:48:15.826Z,32.94
2018-07-23T15:50:44.576Z,32.44
2018-07-23T15:53:13.209Z,31.87
2018-07-23T15:55:42.919Z,31.24
2018-07-23T15:58:11.766Z,30.35
2018-07-23T16:00:40.233Z,30.94
2018-07-23T16:03:09.005Z,31.75
2018-07-23T16:05:37.724Z,31.36
2018-07-23T16:08:06.238Z,31.51
2018-07-23T16:10:35.135Z,32.19
2018-07-23T16:13:03.886Z,32.73
2018-07-23T16:15:32.371Z,32.69
2018-07-23T16:18:00.794Z,32.33
2018-07-23T16:20:30.057Z,31.41
2018-07-23T16:22:58.695Z,31.18
2018-07-23T16:25:27.353Z,30.80
2018-07-23T16:27:56.059Z,31.32
2018-07-23T16:30:24.846Z,31.65
2018-07-23T16:32:54.311Z,31.77
2018-07-23T16:35:23.048Z,31.74
2018-07-23T16:37:51.788Z,31.99
2018-07-23T16:40:20.595Z,31.80
2018-07-23T16:42:49.463Z,31.87
2018-07-23T16:45:18.580Z,31.41
2018-07-23T16:47:47.363Z,31.28
2018-07-23T16:50:16.086Z,30.96
2018-07-23T16:52:44.785Z,31.14
2018-07-23T16:55:13.980Z,31.15
2018-07-23T16:57:42.907Z,31.28
2018-07-23T17:00:12.140Z,30.91
2018-07-23T17:02:41.068Z,30.51
2018-07-23T17:05:09.741Z,29.70
2018-07-23T17:07:38.558Z,29.03
2018-07-23T17:10:07.063Z,28.83
2018-07-23T17:12:35.654Z,28.61
2018-07-23T17:15:04.391Z,28.46
2018-07-23T17:17:32.985Z,28.40
2018-07-23T17:20:01.953Z,28.31
2018-07-23T17:22:30.763Z,28.29
2018-07-23T17:24:59.232Z,28.17
2018-07-23T17:27:27.996Z,28.09
2018-07-23T17:29:57.298Z,28.07
2018-07-23T17:32:26.054Z,28.02
2018-07-23T17:34:55.158Z,27.98
2018-07-23T17:37:24.888Z,27.85
2018-07-23T17:39:53.647Z,27.78
2018-07-23T17:42:22.451Z,27.80
2018-07-23T17:44:51.319Z,27.73
2018-07-23T17:47:20.175Z,27.66
2018-07-23T17:49:49.003Z,27.70
2018-07-23T17:52:17.731Z,27.68
2018-07-23T17:54:47.099Z,27.57
2018-07-23T17:57:16.596Z,27.56
2018-07-23T17:59:45.357Z,27.49
2018-07-23T18:02:14.083Z,27.48
2018-07-23T18:04:42.757Z,27.47
2018-07-23T18:07:11.561Z,27.43
2018-07-23T18:09:40.288Z,27.43
2018-07-23T18:12:08.930Z,27.34
2018-07-23T18:14:37.671Z,27.20
2018-07-23T18:17:06.343Z,27.14
2018-07-23T18:19:34.836Z,27.15
2018-07-23T18:22:04.530Z,27.06
2018-07-23T18:24:33.105Z,26.90
2018-07-23T18:27:03.351Z,26.80
2018-07-23T18:29:31.863Z,26.72
2018-07-23T18:32:00.906Z,26.67
2018-07-23T18:34:29.593Z,26.68
2018-07-23T18:36:58.344Z,26.64
2018-07-23T18:39:27.103Z,26.53
2018-07-23T18:41:56.450Z,26.49
2018-07-23T18:44:25.094Z,26.33
2018-07-23T18:46:53.719Z,26.31
2018-07-23T18:49:43.416Z,26.20
2018-07-23T18:52:13.378Z,26.17
2018-07-23T18:54:43.383Z,26.13
2018-07-23T18:57:12.108Z,26.09
2018-07-23T18:59:40.861Z,26.03
2018-07-23T19:02:11.751Z,25.88
2018-07-23T19:04:40.473Z,25.84
2018-07-23T19:07:09.613Z,25.70
2018-07-23T19:09:38.401Z,25.66
2018-07-23T19:12:07.666Z,25.50
2018-07-23T19:14:36.526Z,25.40
2018-07-23T19:17:06.496Z,25.31
2018-07-23T19:19:35.492Z,25.15
2018-07-23T19:22:04.417Z,25.02
2018-07-23T19:24:33.398Z,24.95
2018-07-23T19:27:03.165Z,24.85
2018-07-23T19:29:32.112Z,24.78
2018-07-23T19:32:01.438Z,24.72
2018-07-23T19:34:30.897Z,24.66
2018-07-23T19:36:59.711Z,24.57
2018-07-23T19:39:30.921Z,24.48
2018-07-23T19:41:59.736Z,24.44
2018-07-23T19:44:28.496Z,24.41
2018-07-23T19:46:57.266Z,24.31
2018-07-23T19:49:26.004Z,24.21
2018-07-23T19:51:54.729Z,24.15
2018-07-23T19:54:23.527Z,24.04
2018-07-23T19:56:52.344Z,24.03
2018-07-23T19:59:21.018Z,23.94
2018-07-23T20:01:50.326Z,23.87
2018-07-23T20:04:18.950Z,23.77
2018-07-23T20:06:47.651Z,23.71
2018-07-23T20:09:16.316Z,23.70
2018-07-23T20:11:44.771Z,23.74
2018-07-23T20:14:13.476Z,23.82
2018-07-23T20:16:43.446Z,23.84
2018-07-23T20:19:12.288Z,23.92
2018-07-23T20:21:41.164Z,23.86
2018-07-23T20:24:10.916Z,23.88
2018-07-23T20:26:39.644Z,23.88
2018-07-23T20:29:08.661Z,23.84
2018-07-23T20:31:37.238Z,23.81
2018-07-23T20:34:05.803Z,23.85
2018-07-23T20:36:35.493Z,24.38
2018-07-23T20:39:06.353Z,24.24
2018-07-23T20:41:35.031Z,23.93
2018-07-23T20:44:04.026Z,23.64
2018-07-23T20:46:32.944Z,23.58
2018-07-23T20:49:01.786Z,23.36
2018-07-23T20:51:30.807Z,23.17
2018-07-23T20:54:00.215Z,23.02
2018-07-23T20:56:28.969Z,22.98
2018-07-23T20:58:59.506Z,22.92
2018-07-23T21:01:29.532Z,22.88
2018-07-23T21:03:58.746Z,22.80
2018-07-23T21:06:28.459Z,22.78
2018-07-23T21:08:57.138Z,22.86
2018-07-23T21:11:26.821Z,22.74
2018-07-23T21:13:55.551Z,22.63
2018-07-23T21:16:23.993Z,22.57
2018-07-23T21:18:52.708Z,22.50
2018-07-23T21:21:21.409Z,22.37
2018-07-23T21:23:49.973Z,22.41
2018-07-23T21:26:18.871Z,22.53
2018-07-23T21:28:47.380Z,22.50
2018-07-23T21:31:16.404Z,22.48
2018-07-23T21:33:45.851Z,22.56
2018-07-23T21:36:14.672Z,22.66
2018-07-23T21:38:43.831Z,22.79
2018-07-23T21:41:12.540Z,22.86
2018-07-23T21:43:41.479Z,22.75
2018-07-23T21:46:10.138Z,22.66
2018-07-23T21:48:38.805Z,22.56
2018-07-23T21:51:07.541Z,22.48
2018-07-23T21:53:36.704Z,22.42
2018-07-23T21:56:05.599Z,22.52
2018-07-23T21:58:34.396Z,22.81
2018-07-23T22:01:03.286Z,22.80
2018-07-23T22:03:31.929Z,22.62
2018-07-23T22:06:00.676Z,22.56
2018-07-23T22:08:29.400Z,22.43
2018-07-23T22:10:57.933Z,22.27
2018-07-23T22:13:26.848Z,22.28
2018-07-23T22:15:55.594Z,22.76
2018-07-23T22:18:24.331Z,22.84
2018-07-23T22:20:53.031Z,22.79
2018-07-23T22:23:21.647Z,22.76
2018-07-23T22:25:50.448Z,22.81
2018-07-23T22:28:19.083Z,22.83
2018-07-23T22:30:47.746Z,22.70
2018-07-23T22:33:16.414Z,22.85
2018-07-23T22:35:47.167Z,22.79
2018-07-23T22:38:16.098Z,22.63
2018-07-23T22:40:44.808Z,22.66
2018-07-23T22:43:13.471Z,22.76
2018-07-23T22:45:42.101Z,22.60
2018-07-23T22:48:10.786Z,22.73
2018-07-23T22:50:39.516Z,22.73
2018-07-23T22:53:08.266Z,22.69
2018-07-23T22:55:36.930Z,22.58
2018-07-23T22:58:05.661Z,22.63
2018-07-23T23:00:35.070Z,22.64
2018-07-23T23:03:03.636Z,22.70
2018-07-23T23:05:32.303Z,22.72
2018-07-23T23:08:01.027Z,22.70
2018-07-23T23:10:29.721Z,22.57
2018-07-23T23:12:58.581Z,22.42
2018-07-23T23:15:27.370Z,22.45
2018-07-23T23:17:55.818Z,22.49
2018-07-23T23:20:24.618Z,22.42
2018-07-23T23:22:53.310Z,22.30
2018-07-23T23:25:21.945Z,22.22
2018-07-23T23:27:51.224Z,22.33
2018-07-23T23:30:19.943Z,22.17
2018-07-23T23:32:48.763Z,22.15
2018-07-23T23:35:17.526Z,21.89
2018-07-23T23:37:46.180Z,21.69
2018-07-23T23:40:14.998Z,21.57
2018-07-23T23:42:43.686Z,21.49
2018-07-23T23:45:12.356Z,21.43
2018-07-23T23:47:41.006Z,21.32
2018-07-23T23:50:09.495Z,21.28
2018-07-23T23:52:37.917Z,21.22
2018-07-23T23:55:07.558Z,21.13
2018-07-23T23:57:36.296Z,21.11
